sensor_id;sensor_type;location;lat;lon;timestamp;P1;durP1;ratioP1;P2;durP2;ratioP2
73266;SDS011;61495;53.400;7.608;2024-01-10T00:01:30;18.80;;;9.68;;
73266;SDS011;61495;53.400;7.608;2024-01-10T00:03:56;23.70;;;11.80;;
73266;SDS011;61495;53.400;7.608;2024-01-10T00:06:22;25.67;;;11.98;;
73266;SDS011;61495;53.400;7.608;2024-01-10T00:08:49;24.17;;;11.00;;
73266;SDS011;61495;53.400;7.608;2024-01-10T00:11:14;23.17;;;12.63;;
73266;SDS011;61495;53.400;7.608;2024-01-10T00:13:40;20.58;;;9.88;;
73266;SDS011;61495;53.400;7.608;2024-01-10T00:16:06;23.40;;;11.18;;
73266;SDS011;61495;53.400;7.608;2024-01-10T00:18:31;27.88;;;12.57;;
73266;SDS011;61495;53.400;7.608;2024-01-10T00:20:57;23.02;;;11.68;;
73266;SDS011;61495;53.400;7.608;2024-01-10T00:23:22;26.58;;;12.82;;
73266;SDS011;61495;53.400;7.608;2024-01-10T00:25:48;32.83;;;12.03;;
73266;SDS011;61495;53.400;7.608;2024-01-10T00:28:14;26.63;;;11.82;;
73266;SDS011;61495;53.400;7.608;2024-01-10T00:30:42;22.65;;;11.68;;
73266;SDS011;61495;53.400;7.608;2024-01-10T00:33:08;28.45;;;11.90;;
73266;SDS011;61495;53.400;7.608;2024-01-10T00:35:34;27.83;;;11.38;;
73266;SDS011;61495;53.400;7.608;2024-01-10T00:37:59;23.15;;;11.43;;
73266;SDS011;61495;53.400;7.608;2024-01-10T00:40:25;23.75;;;10.40;;
73266;SDS011;61495;53.400;7.608;2024-01-10T00:42:50;23.03;;;12.63;;
73266;SDS011;61495;53.400;7.608;2024-01-10T00:45:16;22.40;;;11.65;;
73266;SDS011;61495;53.400;7.608;2024-01-10T00:47:41;27.75;;;12.32;;
73266;SDS011;61495;53.400;7.608;2024-01-10T00:50:07;25.27;;;11.00;;
73266;SDS011;61495;53.400;7.608;2024-01-10T00:54:58;24.10;;;10.00;;
73266;SDS011;61495;53.400;7.608;2024-01-10T00:57:24;22.13;;;11.75;;
73266;SDS011;61495;53.400;7.608;2024-01-10T00:59:49;23.92;;;11.75;;
73266;SDS011;61495;53.400;7.608;2024-01-10T01:02:14;25.80;;;12.03;;
73266;SDS011;61495;53.400;7.608;2024-01-10T01:04:40;24.45;;;11.38;;
73266;SDS011;61495;53.400;7.608;2024-01-10T01:07:05;23.77;;;11.17;;
73266;SDS011;61495;53.400;7.608;2024-01-10T01:09:30;24.60;;;10.77;;
73266;SDS011;61495;53.400;7.608;2024-01-10T01:11:56;22.85;;;10.23;;
73266;SDS011;61495;53.400;7.608;2024-01-10T01:14:21;25.52;;;11.45;;
73266;SDS011;61495;53.400;7.608;2024-01-10T01:16:47;25.33;;;11.40;;
73266;SDS011;61495;53.400;7.608;2024-01-10T01:19:12;24.60;;;10.85;;
73266;SDS011;61495;53.400;7.608;2024-01-10T01:21:38;22.42;;;11.45;;
73266;SDS011;61495;53.400;7.608;2024-01-10T01:24:03;25.98;;;11.88;;
73266;SDS011;61495;53.400;7.608;2024-01-10T01:26:28;23.52;;;10.88;;
73266;SDS011;61495;53.400;7.608;2024-01-10T01:28:54;26.38;;;11.48;;
73266;SDS011;61495;53.400;7.608;2024-01-10T01:31:19;27.77;;;12.30;;
73266;SDS011;61495;53.400;7.608;2024-01-10T01:33:45;23.83;;;11.85;;
73266;SDS011;61495;53.400;7.608;2024-01-10T01:36:10;24.60;;;11.40;;
73266;SDS011;61495;53.400;7.608;2024-01-10T01:38:36;22.65;;;10.77;;
73266;SDS011;61495;53.400;7.608;2024-01-10T01:41:01;29.30;;;12.40;;
73266;SDS011;61495;53.400;7.608;2024-01-10T01:45:53;23.70;;;10.05;;
73266;SDS011;61495;53.400;7.608;2024-01-10T01:48:21;23.77;;;10.73;;
73266;SDS011;61495;53.400;7.608;2024-01-10T01:50:49;21.45;;;10.63;;
73266;SDS011;61495;53.400;7.608;2024-01-10T01:53:17;25.83;;;11.65;;
73266;SDS011;61495;53.400;7.608;2024-01-10T01:55:44;23.30;;;11.38;;
73266;SDS011;61495;53.400;7.608;2024-01-10T01:58:11;27.67;;;12.02;;
73266;SDS011;61495;53.400;7.608;2024-01-10T02:00:37;27.77;;;12.05;;
73266;SDS011;61495;53.400;7.608;2024-01-10T02:03:13;25.38;;;13.32;;
73266;SDS011;61495;53.400;7.608;2024-01-10T02:05:38;22.38;;;10.75;;
73266;SDS011;61495;53.400;7.608;2024-01-10T02:08:04;25.20;;;12.48;;
73266;SDS011;61495;53.400;7.608;2024-01-10T02:10:29;23.02;;;11.77;;
73266;SDS011;61495;53.400;7.608;2024-01-10T02:12:54;28.85;;;12.60;;
73266;SDS011;61495;53.400;7.608;2024-01-10T02:15:20;25.05;;;11.40;;
73266;SDS011;61495;53.400;7.608;2024-01-10T02:17:45;25.35;;;12.23;;
73266;SDS011;61495;53.400;7.608;2024-01-10T02:20:12;21.33;;;11.05;;
73266;SDS011;61495;53.400;7.608;2024-01-10T02:22:38;19.27;;;9.82;;
73266;SDS011;61495;53.400;7.608;2024-01-10T02:25:07;22.77;;;11.35;;
73266;SDS011;61495;53.400;7.608;2024-01-10T02:27:39;26.95;;;12.15;;
73266;SDS011;61495;53.400;7.608;2024-01-10T02:30:06;19.63;;;10.32;;
73266;SDS011;61495;53.400;7.608;2024-01-10T02:32:37;23.98;;;10.32;;
73266;SDS011;61495;53.400;7.608;2024-01-10T02:35:14;26.40;;;11.35;;
73266;SDS011;61495;53.400;7.608;2024-01-10T02:38:05;21.35;;;10.68;;
73266;SDS011;61495;53.400;7.608;2024-01-10T02:40:48;21.35;;;10.27;;
73266;SDS011;61495;53.400;7.608;2024-01-10T02:43:30;20.33;;;10.40;;
73266;SDS011;61495;53.400;7.608;2024-01-10T02:46:14;23.15;;;10.80;;
73266;SDS011;61495;53.400;7.608;2024-01-10T02:48:58;25.63;;;12.00;;
73266;SDS011;61495;53.400;7.608;2024-01-10T02:51:24;26.50;;;11.60;;
73266;SDS011;61495;53.400;7.608;2024-01-10T02:53:52;20.85;;;10.73;;
73266;SDS011;61495;53.400;7.608;2024-01-10T02:56:22;22.90;;;10.57;;
73266;SDS011;61495;53.400;7.608;2024-01-10T02:58:47;21.52;;;10.88;;
73266;SDS011;61495;53.400;7.608;2024-01-10T03:01:13;25.73;;;11.67;;
73266;SDS011;61495;53.400;7.608;2024-01-10T03:03:39;26.55;;;12.70;;
73266;SDS011;61495;53.400;7.608;2024-01-10T03:06:04;18.87;;;9.77;;
73266;SDS011;61495;53.400;7.608;2024-01-10T03:08:29;24.50;;;11.73;;
73266;SDS011;61495;53.400;7.608;2024-01-10T03:10:55;23.03;;;10.60;;
73266;SDS011;61495;53.400;7.608;2024-01-10T03:13:20;25.63;;;11.10;;
73266;SDS011;61495;53.400;7.608;2024-01-10T03:15:45;23.47;;;11.10;;
73266;SDS011;61495;53.400;7.608;2024-01-10T03:18:11;23.07;;;11.67;;
73266;SDS011;61495;53.400;7.608;2024-01-10T03:20:36;22.83;;;11.37;;
73266;SDS011;61495;53.400;7.608;2024-01-10T03:23:01;23.50;;;11.63;;
73266;SDS011;61495;53.400;7.608;2024-01-10T03:25:32;18.67;;;10.18;;
73266;SDS011;61495;53.400;7.608;2024-01-10T03:27:58;23.50;;;10.82;;
73266;SDS011;61495;53.400;7.608;2024-01-10T03:30:23;25.00;;;11.30;;
73266;SDS011;61495;53.400;7.608;2024-01-10T03:32:49;22.48;;;10.43;;
73266;SDS011;61495;53.400;7.608;2024-01-10T03:35:14;25.98;;;11.35;;
73266;SDS011;61495;53.400;7.608;2024-01-10T03:37:40;22.77;;;10.10;;
73266;SDS011;61495;53.400;7.608;2024-01-10T03:40:05;24.37;;;12.30;;
73266;SDS011;61495;53.400;7.608;2024-01-10T03:42:31;26.33;;;12.30;;
73266;SDS011;61495;53.400;7.608;2024-01-10T03:44:56;22.58;;;10.32;;
73266;SDS011;61495;53.400;7.608;2024-01-10T03:47:22;24.17;;;11.03;;
73266;SDS011;61495;53.400;7.608;2024-01-10T03:49:47;29.45;;;10.63;;
73266;SDS011;61495;53.400;7.608;2024-01-10T03:52:13;24.97;;;10.10;;
73266;SDS011;61495;53.400;7.608;2024-01-10T03:54:38;27.50;;;10.07;;
73266;SDS011;61495;53.400;7.608;2024-01-10T03:57:07;28.35;;;10.52;;
73266;SDS011;61495;53.400;7.608;2024-01-10T03:59:32;28.42;;;12.10;;
73266;SDS011;61495;53.400;7.608;2024-01-10T04:01:58;30.63;;;10.73;;
73266;SDS011;61495;53.400;7.608;2024-01-10T04:04:25;32.72;;;12.27;;
73266;SDS011;61495;53.400;7.608;2024-01-10T04:06:50;31.23;;;10.98;;
73266;SDS011;61495;53.400;7.608;2024-01-10T04:09:16;30.10;;;11.90;;
73266;SDS011;61495;53.400;7.608;2024-01-10T04:11:42;32.33;;;11.23;;
73266;SDS011;61495;53.400;7.608;2024-01-10T04:14:07;30.00;;;11.38;;
73266;SDS011;61495;53.400;7.608;2024-01-10T04:16:32;30.73;;;12.52;;
73266;SDS011;61495;53.400;7.608;2024-01-10T04:18:58;32.25;;;11.98;;
73266;SDS011;61495;53.400;7.608;2024-01-10T04:21:23;26.90;;;10.15;;
73266;SDS011;61495;53.400;7.608;2024-01-10T04:23:49;27.73;;;10.73;;
73266;SDS011;61495;53.400;7.608;2024-01-10T04:26:16;25.13;;;10.07;;
73266;SDS011;61495;53.400;7.608;2024-01-10T04:28:42;29.05;;;10.55;;
73266;SDS011;61495;53.400;7.608;2024-01-10T04:31:07;23.13;;;9.95;;
73266;SDS011;61495;53.400;7.608;2024-01-10T04:33:33;28.50;;;10.95;;
73266;SDS011;61495;53.400;7.608;2024-01-10T04:35:58;28.90;;;11.02;;
73266;SDS011;61495;53.400;7.608;2024-01-10T04:38:23;27.63;;;9.75;;
73266;SDS011;61495;53.400;7.608;2024-01-10T04:40:51;24.17;;;8.73;;
73266;SDS011;61495;53.400;7.608;2024-01-10T04:43:17;21.02;;;8.10;;
73266;SDS011;61495;53.400;7.608;2024-01-10T04:45:42;28.15;;;11.27;;
73266;SDS011;61495;53.400;7.608;2024-01-10T04:48:08;25.23;;;9.18;;
73266;SDS011;61495;53.400;7.608;2024-01-10T04:50:34;27.40;;;9.20;;
73266;SDS011;61495;53.400;7.608;2024-01-10T04:55:25;18.80;;;6.10;;
73266;SDS011;61495;53.400;7.608;2024-01-10T04:57:50;21.70;;;9.82;;
73266;SDS011;61495;53.400;7.608;2024-01-10T05:00:16;23.93;;;8.23;;
73266;SDS011;61495;53.400;7.608;2024-01-10T05:02:41;21.38;;;7.95;;
73266;SDS011;61495;53.400;7.608;2024-01-10T05:05:07;22.60;;;8.30;;
73266;SDS011;61495;53.400;7.608;2024-01-10T05:07:32;24.42;;;7.78;;
73266;SDS011;61495;53.400;7.608;2024-01-10T05:09:58;25.87;;;8.53;;
73266;SDS011;61495;53.400;7.608;2024-01-10T05:12:23;23.87;;;8.57;;
73266;SDS011;61495;53.400;7.608;2024-01-10T05:14:48;26.52;;;8.25;;
73266;SDS011;61495;53.400;7.608;2024-01-10T05:17:14;20.03;;;7.40;;
73266;SDS011;61495;53.400;7.608;2024-01-10T05:19:39;23.33;;;7.72;;
73266;SDS011;61495;53.400;7.608;2024-01-10T05:22:05;26.70;;;8.75;;
73266;SDS011;61495;53.400;7.608;2024-01-10T05:26:56;22.77;;;6.23;;
73266;SDS011;61495;53.400;7.608;2024-01-10T05:29:22;20.00;;;6.78;;
73266;SDS011;61495;53.400;7.608;2024-01-10T05:31:49;19.35;;;8.13;;
73266;SDS011;61495;53.400;7.608;2024-01-10T05:34:14;16.70;;;6.28;;
73266;SDS011;61495;53.400;7.608;2024-01-10T05:36:39;17.43;;;5.70;;
73266;SDS011;61495;53.400;7.608;2024-01-10T05:39:05;20.05;;;6.78;;
73266;SDS011;61495;53.400;7.608;2024-01-10T05:41:30;19.30;;;7.50;;
73266;SDS011;61495;53.400;7.608;2024-01-10T05:43:55;22.05;;;7.35;;
73266;SDS011;61495;53.400;7.608;2024-01-10T05:46:21;18.98;;;7.20;;
73266;SDS011;61495;53.400;7.608;2024-01-10T05:48:47;20.08;;;6.53;;
73266;SDS011;61495;53.400;7.608;2024-01-10T05:51:13;18.70;;;6.43;;
73266;SDS011;61495;53.400;7.608;2024-01-10T05:53:38;18.92;;;6.68;;
73266;SDS011;61495;53.400;7.608;2024-01-10T05:56:05;19.98;;;6.68;;
73266;SDS011;61495;53.400;7.608;2024-01-10T05:58:31;16.60;;;6.93;;
73266;SDS011;61495;53.400;7.608;2024-01-10T06:00:56;18.77;;;6.03;;
73266;SDS011;61495;53.400;7.608;2024-01-10T06:03:22;18.73;;;6.90;;
73266;SDS011;61495;53.400;7.608;2024-01-10T06:05:47;20.40;;;8.60;;
73266;SDS011;61495;53.400;7.608;2024-01-10T06:08:12;20.25;;;6.47;;
73266;SDS011;61495;53.400;7.608;2024-01-10T06:10:39;18.98;;;7.72;;
73266;SDS011;61495;53.400;7.608;2024-01-10T06:13:04;21.45;;;8.13;;
73266;SDS011;61495;53.400;7.608;2024-01-10T06:15:30;19.80;;;7.53;;
73266;SDS011;61495;53.400;7.608;2024-01-10T06:17:55;25.08;;;8.27;;
73266;SDS011;61495;53.400;7.608;2024-01-10T06:20:20;19.10;;;6.97;;
73266;SDS011;61495;53.400;7.608;2024-01-10T06:22:46;21.27;;;7.32;;
73266;SDS011;61495;53.400;7.608;2024-01-10T06:25:11;20.40;;;7.10;;
73266;SDS011;61495;53.400;7.608;2024-01-10T06:27:37;18.27;;;6.35;;
73266;SDS011;61495;53.400;7.608;2024-01-10T06:30:03;20.27;;;7.30;;
73266;SDS011;61495;53.400;7.608;2024-01-10T06:32:28;23.23;;;7.57;;
73266;SDS011;61495;53.400;7.608;2024-01-10T06:34:53;19.58;;;6.35;;
73266;SDS011;61495;53.400;7.608;2024-01-10T06:37:19;24.00;;;8.57;;
73266;SDS011;61495;53.400;7.608;2024-01-10T06:39:44;20.97;;;6.97;;
73266;SDS011;61495;53.400;7.608;2024-01-10T06:42:10;25.45;;;8.23;;
73266;SDS011;61495;53.400;7.608;2024-01-10T06:44:36;19.70;;;6.93;;
73266;SDS011;61495;53.400;7.608;2024-01-10T06:47:02;19.27;;;9.02;;
73266;SDS011;61495;53.400;7.608;2024-01-10T06:51:54;18.90;;;6.47;;
73266;SDS011;61495;53.400;7.608;2024-01-10T06:54:19;20.55;;;6.63;;
73266;SDS011;61495;53.400;7.608;2024-01-10T06:56:45;17.55;;;7.03;;
73266;SDS011;61495;53.400;7.608;2024-01-10T06:59:10;21.00;;;7.88;;
73266;SDS011;61495;53.400;7.608;2024-01-10T07:01:36;16.67;;;5.80;;
73266;SDS011;61495;53.400;7.608;2024-01-10T07:04:02;19.60;;;7.10;;
73266;SDS011;61495;53.400;7.608;2024-01-10T07:06:29;22.00;;;7.93;;
73266;SDS011;61495;53.400;7.608;2024-01-10T07:08:55;24.15;;;7.70;;
73266;SDS011;61495;53.400;7.608;2024-01-10T07:11:20;22.63;;;7.77;;
73266;SDS011;61495;53.400;7.608;2024-01-10T07:13:46;17.17;;;7.35;;
73266;SDS011;61495;53.400;7.608;2024-01-10T07:16:11;21.25;;;8.32;;
73266;SDS011;61495;53.400;7.608;2024-01-10T07:18:39;20.20;;;7.13;;
73266;SDS011;61495;53.400;7.608;2024-01-10T07:21:05;19.85;;;6.65;;
73266;SDS011;61495;53.400;7.608;2024-01-10T07:23:30;19.35;;;7.20;;
73266;SDS011;61495;53.400;7.608;2024-01-10T07:26:02;16.98;;;6.95;;
73266;SDS011;61495;53.400;7.608;2024-01-10T07:28:27;22.65;;;8.50;;
73266;SDS011;61495;53.400;7.608;2024-01-10T07:30:53;23.07;;;7.73;;
73266;SDS011;61495;53.400;7.608;2024-01-10T07:33:18;19.42;;;7.40;;
73266;SDS011;61495;53.400;7.608;2024-01-10T07:35:43;18.63;;;7.63;;
73266;SDS011;61495;53.400;7.608;2024-01-10T07:38:09;17.73;;;6.57;;
73266;SDS011;61495;53.400;7.608;2024-01-10T07:40:34;24.42;;;8.88;;
73266;SDS011;61495;53.400;7.608;2024-01-10T07:43:01;15.68;;;6.90;;
73266;SDS011;61495;53.400;7.608;2024-01-10T07:45:26;18.30;;;7.95;;
73266;SDS011;61495;53.400;7.608;2024-01-10T07:47:52;23.15;;;8.40;;
73266;SDS011;61495;53.400;7.608;2024-01-10T07:50:17;21.35;;;7.82;;
73266;SDS011;61495;53.400;7.608;2024-01-10T07:52:44;19.80;;;7.60;;
73266;SDS011;61495;53.400;7.608;2024-01-10T07:55:11;22.40;;;7.95;;
73266;SDS011;61495;53.400;7.608;2024-01-10T07:57:37;22.85;;;7.57;;
73266;SDS011;61495;53.400;7.608;2024-01-10T08:00:04;18.23;;;6.93;;
73266;SDS011;61495;53.400;7.608;2024-01-10T08:02:33;24.45;;;8.07;;
73266;SDS011;61495;53.400;7.608;2024-01-10T08:04:59;20.13;;;7.30;;
73266;SDS011;61495;53.400;7.608;2024-01-10T08:07:25;21.08;;;8.15;;
73266;SDS011;61495;53.400;7.608;2024-01-10T08:09:51;21.23;;;8.23;;
73266;SDS011;61495;53.400;7.608;2024-01-10T08:12:16;19.07;;;7.60;;
73266;SDS011;61495;53.400;7.608;2024-01-10T08:14:42;22.63;;;8.67;;
73266;SDS011;61495;53.400;7.608;2024-01-10T08:17:10;23.08;;;8.38;;
73266;SDS011;61495;53.400;7.608;2024-01-10T08:19:36;23.02;;;7.88;;
73266;SDS011;61495;53.400;7.608;2024-01-10T08:22:02;23.48;;;8.18;;
73266;SDS011;61495;53.400;7.608;2024-01-10T08:24:28;22.08;;;8.05;;
73266;SDS011;61495;53.400;7.608;2024-01-10T08:26:53;25.57;;;7.97;;
73266;SDS011;61495;53.400;7.608;2024-01-10T08:29:19;24.17;;;7.78;;
73266;SDS011;61495;53.400;7.608;2024-01-10T08:31:45;24.45;;;6.93;;
73266;SDS011;61495;53.400;7.608;2024-01-10T08:34:10;20.80;;;7.80;;
73266;SDS011;61495;53.400;7.608;2024-01-10T08:36:36;22.70;;;8.30;;
73266;SDS011;61495;53.400;7.608;2024-01-10T08:39:02;20.60;;;8.35;;
73266;SDS011;61495;53.400;7.608;2024-01-10T08:41:28;20.42;;;7.55;;
73266;SDS011;61495;53.400;7.608;2024-01-10T08:43:54;26.15;;;9.07;;
73266;SDS011;61495;53.400;7.608;2024-01-10T08:46:19;26.60;;;8.10;;
73266;SDS011;61495;53.400;7.608;2024-01-10T08:51:12;15.82;;;6.63;;
73266;SDS011;61495;53.400;7.608;2024-01-10T08:53:41;24.63;;;8.77;;
73266;SDS011;61495;53.400;7.608;2024-01-10T08:56:12;23.45;;;7.95;;
73266;SDS011;61495;53.400;7.608;2024-01-10T08:58:40;28.30;;;8.80;;
73266;SDS011;61495;53.400;7.608;2024-01-10T09:01:05;22.58;;;7.43;;
73266;SDS011;61495;53.400;7.608;2024-01-10T09:03:30;20.85;;;7.60;;
73266;SDS011;61495;53.400;7.608;2024-01-10T09:05:56;24.10;;;7.90;;
73266;SDS011;61495;53.400;7.608;2024-01-10T09:08:22;21.23;;;7.53;;
73266;SDS011;61495;53.400;7.608;2024-01-10T09:10:47;25.13;;;8.88;;
73266;SDS011;61495;53.400;7.608;2024-01-10T09:13:14;23.25;;;9.07;;
73266;SDS011;61495;53.400;7.608;2024-01-10T09:15:40;22.15;;;8.68;;
73266;SDS011;61495;53.400;7.608;2024-01-10T09:18:05;23.60;;;8.20;;
73266;SDS011;61495;53.400;7.608;2024-01-10T09:20:31;22.67;;;8.57;;
73266;SDS011;61495;53.400;7.608;2024-01-10T09:22:56;19.48;;;8.05;;
73266;SDS011;61495;53.400;7.608;2024-01-10T09:25:22;27.97;;;9.43;;
73266;SDS011;61495;53.400;7.608;2024-01-10T09:27:47;24.40;;;8.65;;
73266;SDS011;61495;53.400;7.608;2024-01-10T09:30:12;20.30;;;8.77;;
73266;SDS011;61495;53.400;7.608;2024-01-10T09:32:41;21.13;;;8.60;;
73266;SDS011;61495;53.400;7.608;2024-01-10T09:35:06;18.93;;;6.97;;
73266;SDS011;61495;53.400;7.608;2024-01-10T09:37:33;22.98;;;8.38;;
73266;SDS011;61495;53.400;7.608;2024-01-10T09:39:58;25.23;;;8.45;;
73266;SDS011;61495;53.400;7.608;2024-01-10T09:42:24;23.45;;;7.40;;
73266;SDS011;61495;53.400;7.608;2024-01-10T09:44:53;25.70;;;8.52;;
73266;SDS011;61495;53.400;7.608;2024-01-10T09:47:19;20.63;;;7.53;;
73266;SDS011;61495;53.400;7.608;2024-01-10T09:49:45;23.58;;;8.32;;
73266;SDS011;61495;53.400;7.608;2024-01-10T09:52:13;26.70;;;7.65;;
73266;SDS011;61495;53.400;7.608;2024-01-10T09:54:47;26.48;;;8.63;;
73266;SDS011;61495;53.400;7.608;2024-01-10T09:57:18;21.88;;;8.30;;
73266;SDS011;61495;53.400;7.608;2024-01-10T09:59:45;32.20;;;9.13;;
73266;SDS011;61495;53.400;7.608;2024-01-10T10:02:13;21.77;;;8.65;;
73266;SDS011;61495;53.400;7.608;2024-01-10T10:04:38;21.85;;;8.77;;
73266;SDS011;61495;53.400;7.608;2024-01-10T10:07:10;25.83;;;9.65;;
73266;SDS011;61495;53.400;7.608;2024-01-10T10:09:35;27.77;;;9.47;;
73266;SDS011;61495;53.400;7.608;2024-01-10T10:12:00;28.33;;;9.02;;
73266;SDS011;61495;53.400;7.608;2024-01-10T10:14:28;22.45;;;10.10;;
73266;SDS011;61495;53.400;7.608;2024-01-10T10:16:54;23.70;;;8.80;;
73266;SDS011;61495;53.400;7.608;2024-01-10T10:19:23;28.95;;;8.48;;
73266;SDS011;61495;53.400;7.608;2024-01-10T10:21:50;24.98;;;9.15;;
73266;SDS011;61495;53.400;7.608;2024-01-10T10:24:16;23.13;;;8.88;;
73266;SDS011;61495;53.400;7.608;2024-01-10T10:26:42;26.98;;;8.85;;
73266;SDS011;61495;53.400;7.608;2024-01-10T10:29:07;28.45;;;10.13;;
73266;SDS011;61495;53.400;7.608;2024-01-10T10:31:32;26.10;;;8.68;;
73266;SDS011;61495;53.400;7.608;2024-01-10T10:34:01;24.58;;;9.25;;
73266;SDS011;61495;53.400;7.608;2024-01-10T10:36:30;22.08;;;9.32;;
73266;SDS011;61495;53.400;7.608;2024-01-10T10:38:56;22.83;;;8.68;;
73266;SDS011;61495;53.400;7.608;2024-01-10T10:41:26;27.30;;;9.85;;
73266;SDS011;61495;53.400;7.608;2024-01-10T10:43:54;26.48;;;10.18;;
73266;SDS011;61495;53.400;7.608;2024-01-10T10:46:20;24.93;;;10.30;;
73266;SDS011;61495;53.400;7.608;2024-01-10T10:48:47;28.00;;;9.40;;
73266;SDS011;61495;53.400;7.608;2024-01-10T10:51:20;19.88;;;8.50;;
73266;SDS011;61495;53.400;7.608;2024-01-10T10:53:53;22.52;;;9.43;;
73266;SDS011;61495;53.400;7.608;2024-01-10T10:56:20;25.15;;;9.90;;
73266;SDS011;61495;53.400;7.608;2024-01-10T10:58:45;20.63;;;9.07;;
73266;SDS011;61495;53.400;7.608;2024-01-10T11:03:38;23.27;;;8.40;;
73266;SDS011;61495;53.400;7.608;2024-01-10T11:06:05;25.92;;;9.82;;
73266;SDS011;61495;53.400;7.608;2024-01-10T11:08:35;21.52;;;8.88;;
73266;SDS011;61495;53.400;7.608;2024-01-10T11:11:04;20.23;;;8.65;;
73266;SDS011;61495;53.400;7.608;2024-01-10T11:24:18;19.60;;;7.75;;
73266;SDS011;61495;53.400;7.608;2024-01-10T11:29:10;14.88;;;6.38;;
73266;SDS011;61495;53.400;7.608;2024-01-10T11:31:35;18.63;;;9.00;;
73266;SDS011;61495;53.400;7.608;2024-01-10T11:34:03;18.88;;;8.40;;
73266;SDS011;61495;53.400;7.608;2024-01-10T11:38:57;15.25;;;7.60;;
73266;SDS011;61495;53.400;7.608;2024-01-10T11:46:41;15.85;;;6.22;;
73266;SDS011;61495;53.400;7.608;2024-01-10T11:49:10;17.00;;;6.72;;
73266;SDS011;61495;53.400;7.608;2024-01-10T11:51:38;19.33;;;7.03;;
73266;SDS011;61495;53.400;7.608;2024-01-10T11:54:06;19.77;;;7.05;;
73266;SDS011;61495;53.400;7.608;2024-01-10T11:59:07;16.70;;;6.82;;
73266;SDS011;61495;53.400;7.608;2024-01-10T12:01:41;19.58;;;7.32;;
73266;SDS011;61495;53.400;7.608;2024-01-10T12:04:13;15.70;;;6.88;;
73266;SDS011;61495;53.400;7.608;2024-01-10T12:06:39;16.02;;;6.82;;
73266;SDS011;61495;53.400;7.608;2024-01-10T12:11:34;15.95;;;7.03;;
73266;SDS011;61495;53.400;7.608;2024-01-10T12:14:00;12.57;;;6.13;;
73266;SDS011;61495;53.400;7.608;2024-01-10T12:16:27;17.23;;;7.80;;
73266;SDS011;61495;53.400;7.608;2024-01-10T12:18:52;18.93;;;7.10;;
73266;SDS011;61495;53.400;7.608;2024-01-10T12:23:43;15.27;;;6.07;;
73266;SDS011;61495;53.400;7.608;2024-01-10T12:28:37;16.35;;;6.43;;
73266;SDS011;61495;53.400;7.608;2024-01-10T12:31:05;14.68;;;6.32;;
73266;SDS011;61495;53.400;7.608;2024-01-10T12:33:37;15.02;;;6.90;;
73266;SDS011;61495;53.400;7.608;2024-01-10T12:36:11;15.77;;;6.88;;
73266;SDS011;61495;53.400;7.608;2024-01-10T12:38:40;15.85;;;7.43;;
73266;SDS011;61495;53.400;7.608;2024-01-10T12:41:05;18.02;;;7.55;;
73266;SDS011;61495;53.400;7.608;2024-01-10T12:43:33;13.55;;;6.70;;
73266;SDS011;61495;53.400;7.608;2024-01-10T12:48:31;14.57;;;6.13;;
73266;SDS011;61495;53.400;7.608;2024-01-10T12:51:01;15.85;;;7.43;;
73266;SDS011;61495;53.400;7.608;2024-01-10T12:53:28;18.88;;;7.95;;
73266;SDS011;61495;53.400;7.608;2024-01-10T12:58:20;16.58;;;6.32;;
73266;SDS011;61495;53.400;7.608;2024-01-10T13:03:10;18.13;;;6.47;;
73266;SDS011;61495;53.400;7.608;2024-01-10T13:08:01;15.53;;;6.47;;
73266;SDS011;61495;53.400;7.608;2024-01-10T13:10:30;16.10;;;6.50;;
73266;SDS011;61495;53.400;7.608;2024-01-10T13:15:20;12.93;;;5.90;;
73266;SDS011;61495;53.400;7.608;2024-01-10T13:20:11;14.25;;;5.50;;
73266;SDS011;61495;53.400;7.608;2024-01-10T13:22:37;13.88;;;5.65;;
73266;SDS011;61495;53.400;7.608;2024-01-10T13:27:28;13.23;;;6.07;;
73266;SDS011;61495;53.400;7.608;2024-01-10T13:29:53;14.88;;;6.57;;
73266;SDS011;61495;53.400;7.608;2024-01-10T13:34:44;14.95;;;6.35;;
73266;SDS011;61495;53.400;7.608;2024-01-10T13:39:37;15.25;;;6.00;;
73266;SDS011;61495;53.400;7.608;2024-01-10T13:44:28;12.38;;;5.40;;
73266;SDS011;61495;53.400;7.608;2024-01-10T13:49:19;12.63;;;5.40;;
73266;SDS011;61495;53.400;7.608;2024-01-10T13:54:10;12.23;;;4.97;;
73266;SDS011;61495;53.400;7.608;2024-01-10T13:59:01;11.73;;;4.80;;
73266;SDS011;61495;53.400;7.608;2024-01-10T14:03:52;15.27;;;5.90;;
73266;SDS011;61495;53.400;7.608;2024-01-10T14:08:42;17.73;;;5.73;;
73266;SDS011;61495;53.400;7.608;2024-01-10T14:11:10;16.48;;;6.93;;
73266;SDS011;61495;53.400;7.608;2024-01-10T14:16:01;13.97;;;4.80;;
73266;SDS011;61495;53.400;7.608;2024-01-10T14:20:51;9.50;;;4.63;;
73266;SDS011;61495;53.400;7.608;2024-01-10T14:25:54;11.35;;;5.45;;
73266;SDS011;61495;53.400;7.608;2024-01-10T14:28:19;14.10;;;6.32;;
73266;SDS011;61495;53.400;7.608;2024-01-10T14:30:47;17.30;;;6.32;;
73266;SDS011;61495;53.400;7.608;2024-01-10T14:35:39;17.05;;;5.53;;
73266;SDS011;61495;53.400;7.608;2024-01-10T14:38:05;14.73;;;6.25;;
73266;SDS011;61495;53.400;7.608;2024-01-10T14:42:55;13.33;;;5.97;;
73266;SDS011;61495;53.400;7.608;2024-01-10T14:47:46;14.20;;;5.47;;
73266;SDS011;61495;53.400;7.608;2024-01-10T14:52:37;15.03;;;5.67;;
73266;SDS011;61495;53.400;7.608;2024-01-10T14:57:30;14.50;;;6.20;;
73266;SDS011;61495;53.400;7.608;2024-01-10T15:02:20;15.20;;;6.70;;
73266;SDS011;61495;53.400;7.608;2024-01-10T15:04:47;16.17;;;6.32;;
73266;SDS011;61495;53.400;7.608;2024-01-10T15:09:38;16.87;;;6.07;;
73266;SDS011;61495;53.400;7.608;2024-01-10T15:14:32;10.13;;;5.43;;
73266;SDS011;61495;53.400;7.608;2024-01-10T15:19:23;15.45;;;5.57;;
73266;SDS011;61495;53.400;7.608;2024-01-10T15:24:14;13.30;;;6.07;;
73266;SDS011;61495;53.400;7.608;2024-01-10T15:29:09;14.07;;;5.10;;
73266;SDS011;61495;53.400;7.608;2024-01-10T15:34:02;12.37;;;5.13;;
73266;SDS011;61495;53.400;7.608;2024-01-10T15:36:27;15.55;;;6.22;;
73266;SDS011;61495;53.400;7.608;2024-01-10T15:38:53;17.13;;;6.57;;
73266;SDS011;61495;53.400;7.608;2024-01-10T15:41:18;15.65;;;6.88;;
73266;SDS011;61495;53.400;7.608;2024-01-10T15:46:09;13.35;;;5.82;;
73266;SDS011;61495;53.400;7.608;2024-01-10T15:48:42;16.88;;;7.53;;
73266;SDS011;61495;53.400;7.608;2024-01-10T15:53:33;13.03;;;6.10;;
73266;SDS011;61495;53.400;7.608;2024-01-10T15:55:59;16.15;;;7.18;;
73266;SDS011;61495;53.400;7.608;2024-01-10T15:58:24;12.48;;;5.68;;
73266;SDS011;61495;53.400;7.608;2024-01-10T16:03:15;10.93;;;5.43;;
73266;SDS011;61495;53.400;7.608;2024-01-10T16:08:06;14.10;;;5.80;;
73266;SDS011;61495;53.400;7.608;2024-01-10T16:10:32;12.82;;;5.47;;
73266;SDS011;61495;53.400;7.608;2024-01-10T16:12:57;14.15;;;5.63;;
73266;SDS011;61495;53.400;7.608;2024-01-10T16:15:22;14.73;;;5.87;;
73266;SDS011;61495;53.400;7.608;2024-01-10T16:17:47;16.67;;;6.23;;
73266;SDS011;61495;53.400;7.608;2024-01-10T16:20:13;11.57;;;5.70;;
73266;SDS011;61495;53.400;7.608;2024-01-10T16:22:39;14.02;;;5.80;;
73266;SDS011;61495;53.400;7.608;2024-01-10T16:25:05;14.65;;;5.68;;
73266;SDS011;61495;53.400;7.608;2024-01-10T16:27:33;12.57;;;6.00;;
73266;SDS011;61495;53.400;7.608;2024-01-10T16:29:59;14.00;;;6.43;;
73266;SDS011;61495;53.400;7.608;2024-01-10T16:32:25;14.98;;;6.22;;
73266;SDS011;61495;53.400;7.608;2024-01-10T16:34:51;13.38;;;6.53;;
73266;SDS011;61495;53.400;7.608;2024-01-10T16:39:42;12.47;;;5.47;;